sensor_id;sensor_type;location;lat;lon;timestamp;temperature;humidity
47658;DHT22;33958;48.404;10.598;2022-07-23T00:00:29;20.60;99.90
47658;DHT22;33958;48.404;10.598;2022-07-23T00:03:03;20.50;99.90
47658;DHT22;33958;48.404;10.598;2022-07-23T00:05:30;18.70;99.90
47658;DHT22;33958;48.404;10.598;2022-07-23T00:07:57;19.40;99.90
47658;DHT22;33958;48.404;10.598;2022-07-23T00:10:24;19.70;99.90
47658;DHT22;33958;48.404;10.598;2022-07-23T00:12:51;19.40;99.90
47658;DHT22;33958;48.404;10.598;2022-07-23T00:15:18;19.40;99.90
47658;DHT22;33958;48.404;10.598;2022-07-23T00:17:45;19.80;99.90
47658;DHT22;33958;48.404;10.598;2022-07-23T00:20:13;19.40;99.90
47658;DHT22;33958;48.404;10.598;2022-07-23T00:22:51;20.00;99.90
47658;DHT22;33958;48.404;10.598;2022-07-23T00:25:19;19.90;99.90
47658;DHT22;33958;48.404;10.598;2022-07-23T00:27:57;20.10;99.90
47658;DHT22;33958;48.404;10.598;2022-07-23T00:30:24;19.80;99.90
47658;DHT22;33958;48.404;10.598;2022-07-23T00:32:54;19.90;99.90
47658;DHT22;33958;48.404;10.598;2022-07-23T00:35:25;19.80;99.90
47658;DHT22;33958;48.404;10.598;2022-07-23T00:37:53;19.80;99.90
47658;DHT22;33958;48.404;10.598;2022-07-23T00:40:20;20.30;99.90
47658;DHT22;33958;48.404;10.598;2022-07-23T00:42:47;20.00;99.90
47658;DHT22;33958;48.404;10.598;2022-07-23T00:45:15;20.40;99.90
47658;DHT22;33958;48.404;10.598;2022-07-23T00:47:42;20.20;99.90
47658;DHT22;33958;48.404;10.598;2022-07-23T00:50:10;20.00;99.90
47658;DHT22;33958;48.404;10.598;2022-07-23T00:52:38;20.00;99.90
47658;DHT22;33958;48.404;10.598;2022-07-23T00:55:06;20.10;99.90
47658;DHT22;33958;48.404;10.598;2022-07-23T00:57:34;20.30;99.90
47658;DHT22;33958;48.404;10.598;2022-07-23T01:00:02;20.30;99.90
47658;DHT22;33958;48.404;10.598;2022-07-23T01:02:29;19.90;99.90
47658;DHT22;33958;48.404;10.598;2022-07-23T01:04:56;19.90;99.90
47658;DHT22;33958;48.404;10.598;2022-07-23T01:07:23;19.90;99.90
47658;DHT22;33958;48.404;10.598;2022-07-23T01:09:51;20.10;99.90
47658;DHT22;33958;48.404;10.598;2022-07-23T01:12:18;19.70;99.90
47658;DHT22;33958;48.404;10.598;2022-07-23T01:14:52;19.80;99.90
47658;DHT22;33958;48.404;10.598;2022-07-23T01:17:19;19.60;99.90
47658;DHT22;33958;48.404;10.598;2022-07-23T01:19:46;19.40;99.90
47658;DHT22;33958;48.404;10.598;2022-07-23T01:22:14;19.30;99.90
47658;DHT22;33958;48.404;10.598;2022-07-23T01:24:43;19.60;99.90
47658;DHT22;33958;48.404;10.598;2022-07-23T01:27:09;19.60;99.90
47658;DHT22;33958;48.404;10.598;2022-07-23T01:29:36;19.40;99.90
47658;DHT22;33958;48.404;10.598;2022-07-23T01:32:04;19.50;99.90
47658;DHT22;33958;48.404;10.598;2022-07-23T01:34:31;19.50;99.90
47658;DHT22;33958;48.404;10.598;2022-07-23T01:36:57;19.60;99.90
47658;DHT22;33958;48.404;10.598;2022-07-23T01:39:24;19.50;99.90
47658;DHT22;33958;48.404;10.598;2022-07-23T01:41:51;19.70;99.90
47658;DHT22;33958;48.404;10.598;2022-07-23T01:44:18;19.60;99.90
47658;DHT22;33958;48.404;10.598;2022-07-23T01:46:45;19.40;99.90
47658;DHT22;33958;48.404;10.598;2022-07-23T01:49:11;19.30;99.90
47658;DHT22;33958;48.404;10.598;2022-07-23T01:51:39;19.20;99.90
47658;DHT22;33958;48.404;10.598;2022-07-23T01:54:26;19.50;99.90
47658;DHT22;33958;48.404;10.598;2022-07-23T01:56:54;19.60;99.90
47658;DHT22;33958;48.404;10.598;2022-07-23T01:59:22;19.70;99.90
47658;DHT22;33958;48.404;10.598;2022-07-23T02:01:49;19.90;99.90
47658;DHT22;33958;48.404;10.598;2022-07-23T02:04:20;19.70;99.90
47658;DHT22;33958;48.404;10.598;2022-07-23T02:06:48;19.60;99.90
47658;DHT22;33958;48.404;10.598;2022-07-23T02:09:15;19.80;99.90
47658;DHT22;33958;48.404;10.598;2022-07-23T02:11:43;19.70;99.90
47658;DHT22;33958;48.404;10.598;2022-07-23T02:14:10;20.00;99.90
47658;DHT22;33958;48.404;10.598;2022-07-23T02:16:37;19.70;99.90
47658;DHT22;33958;48.404;10.598;2022-07-23T02:19:04;19.50;99.90
47658;DHT22;33958;48.404;10.598;2022-07-23T02:21:31;19.40;99.90
47658;DHT22;33958;48.404;10.598;2022-07-23T02:23:58;19.50;99.90
47658;DHT22;33958;48.404;10.598;2022-07-23T02:26:25;19.50;99.90
47658;DHT22;33958;48.404;10.598;2022-07-23T02:28:51;19.50;99.90
47658;DHT22;33958;48.404;10.598;2022-07-23T02:31:20;19.60;99.90
47658;DHT22;33958;48.404;10.598;2022-07-23T02:33:47;19.50;99.90
47658;DHT22;33958;48.404;10.598;2022-07-23T02:36:14;19.60;99.90
47658;DHT22;33958;48.404;10.598;2022-07-23T02:38:41;19.50;99.90
47658;DHT22;33958;48.404;10.598;2022-07-23T02:41:08;19.60;99.90
47658;DHT22;33958;48.404;10.598;2022-07-23T02:43:36;19.50;99.90
47658;DHT22;33958;48.404;10.598;2022-07-23T02:46:03;19.40;99.90
47658;DHT22;33958;48.404;10.598;2022-07-23T02:48:29;19.50;99.90
47658;DHT22;33958;48.404;10.598;2022-07-23T02:50:57;19.40;99.90
47658;DHT22;33958;48.404;10.598;2022-07-23T02:53:24;19.40;99.90
47658;DHT22;33958;48.404;10.598;2022-07-23T02:55:51;19.30;99.90
47658;DHT22;33958;48.404;10.598;2022-07-23T02:58:17;19.40;99.90
47658;DHT22;33958;48.404;10.598;2022-07-23T03:00:44;19.40;99.90
47658;DHT22;33958;48.404;10.598;2022-07-23T03:03:11;19.30;99.90
47658;DHT22;33958;48.404;10.598;2022-07-23T03:05:38;19.40;99.90
47658;DHT22;33958;48.404;10.598;2022-07-23T03:08:05;19.20;99.90
47658;DHT22;33958;48.404;10.598;2022-07-23T03:10:32;19.30;99.90
47658;DHT22;33958;48.404;10.598;2022-07-23T03:12:59;19.30;99.90
47658;DHT22;33958;48.404;10.598;2022-07-23T03:15:26;19.20;99.90
47658;DHT22;33958;48.404;10.598;2022-07-23T03:17:52;19.10;99.90
47658;DHT22;33958;48.404;10.598;2022-07-23T03:20:20;19.20;99.90
47658;DHT22;33958;48.404;10.598;2022-07-23T03:22:46;19.30;99.90
47658;DHT22;33958;48.404;10.598;2022-07-23T03:25:13;19.20;99.90
47658;DHT22;33958;48.404;10.598;2022-07-23T03:27:40;19.20;99.90
47658;DHT22;33958;48.404;10.598;2022-07-23T03:30:07;19.20;99.90
47658;DHT22;33958;48.404;10.598;2022-07-23T03:32:34;19.30;99.90
47658;DHT22;33958;48.404;10.598;2022-07-23T03:35:01;19.40;99.90
47658;DHT22;33958;48.404;10.598;2022-07-23T03:37:28;19.50;99.90
47658;DHT22;33958;48.404;10.598;2022-07-23T03:39:55;19.40;99.90
47658;DHT22;33958;48.404;10.598;2022-07-23T03:42:22;19.40;99.90
47658;DHT22;33958;48.404;10.598;2022-07-23T03:44:49;19.30;99.90
47658;DHT22;33958;48.404;10.598;2022-07-23T03:47:16;19.20;99.90
47658;DHT22;33958;48.404;10.598;2022-07-23T03:49:43;19.10;99.90
47658;DHT22;33958;48.404;10.598;2022-07-23T03:52:10;19.10;99.90
47658;DHT22;33958;48.404;10.598;2022-07-23T03:54:37;19.10;99.90
47658;DHT22;33958;48.404;10.598;2022-07-23T03:57:04;19.20;99.90
47658;DHT22;33958;48.404;10.598;2022-07-23T03:59:32;19.10;99.90
47658;DHT22;33958;48.404;10.598;2022-07-23T04:01:59;19.00;99.90
47658;DHT22;33958;48.404;10.598;2022-07-23T04:04:26;19.10;99.90
47658;DHT22;33958;48.404;10.598;2022-07-23T04:06:53;19.10;99.90
47658;DHT22;33958;48.404;10.598;2022-07-23T04:09:20;19.10;99.90
47658;DHT22;33958;48.404;10.598;2022-07-23T04:11:47;19.20;99.90
47658;DHT22;33958;48.404;10.598;2022-07-23T04:14:13;19.10;99.90
47658;DHT22;33958;48.404;10.598;2022-07-23T04:16:40;19.30;99.90
47658;DHT22;33958;48.404;10.598;2022-07-23T04:19:07;19.10;99.90
47658;DHT22;33958;48.404;10.598;2022-07-23T04:21:34;19.00;99.90
47658;DHT22;33958;48.404;10.598;2022-07-23T04:24:01;19.00;99.90
47658;DHT22;33958;48.404;10.598;2022-07-23T04:26:28;18.80;99.90
47658;DHT22;33958;48.404;10.598;2022-07-23T04:28:55;19.00;99.90
47658;DHT22;33958;48.404;10.598;2022-07-23T04:31:22;19.00;99.90
47658;DHT22;33958;48.404;10.598;2022-07-23T04:33:48;19.20;99.90
47658;DHT22;33958;48.404;10.598;2022-07-23T04:36:16;19.50;99.90
47658;DHT22;33958;48.404;10.598;2022-07-23T04:38:42;19.60;99.90
47658;DHT22;33958;48.404;10.598;2022-07-23T04:41:14;19.20;99.90
47658;DHT22;33958;48.404;10.598;2022-07-23T04:43:40;19.20;99.90
47658;DHT22;33958;48.404;10.598;2022-07-23T04:46:07;19.30;99.90
47658;DHT22;33958;48.404;10.598;2022-07-23T04:48:34;19.40;99.90
47658;DHT22;33958;48.404;10.598;2022-07-23T04:51:02;19.40;99.90
47658;DHT22;33958;48.404;10.598;2022-07-23T04:53:29;19.30;99.90
47658;DHT22;33958;48.404;10.598;2022-07-23T04:55:56;19.30;99.90
47658;DHT22;33958;48.404;10.598;2022-07-23T04:58:23;19.30;99.90
47658;DHT22;33958;48.404;10.598;2022-07-23T05:00:50;19.30;99.90
47658;DHT22;33958;48.404;10.598;2022-07-23T05:03:17;19.30;99.90
47658;DHT22;33958;48.404;10.598;2022-07-23T05:05:44;19.20;99.90
47658;DHT22;33958;48.404;10.598;2022-07-23T05:08:11;19.10;99.90
47658;DHT22;33958;48.404;10.598;2022-07-23T05:10:38;19.00;99.90
47658;DHT22;33958;48.404;10.598;2022-07-23T05:13:05;19.00;99.90
47658;DHT22;33958;48.404;10.598;2022-07-23T05:15:32;18.90;99.90
47658;DHT22;33958;48.404;10.598;2022-07-23T05:17:59;19.00;99.90
47658;DHT22;33958;48.404;10.598;2022-07-23T05:20:26;19.10;99.90
47658;DHT22;33958;48.404;10.598;2022-07-23T05:22:54;19.10;99.90
47658;DHT22;33958;48.404;10.598;2022-07-23T05:25:21;19.20;99.90
47658;DHT22;33958;48.404;10.598;2022-07-23T05:27:48;19.20;99.90
47658;DHT22;33958;48.404;10.598;2022-07-23T05:30:14;19.20;99.90
47658;DHT22;33958;48.404;10.598;2022-07-23T05:32:41;19.20;99.90
47658;DHT22;33958;48.404;10.598;2022-07-23T05:35:08;19.20;99.90
47658;DHT22;33958;48.404;10.598;2022-07-23T05:37:36;19.20;99.90
47658;DHT22;33958;48.404;10.598;2022-07-23T05:40:07;19.20;99.90
47658;DHT22;33958;48.404;10.598;2022-07-23T05:42:39;19.10;99.90
47658;DHT22;33958;48.404;10.598;2022-07-23T05:45:06;19.20;99.90
47658;DHT22;33958;48.404;10.598;2022-07-23T05:47:48;19.10;99.90
47658;DHT22;33958;48.404;10.598;2022-07-23T05:50:16;19.00;99.90
47658;DHT22;33958;48.404;10.598;2022-07-23T05:52:44;19.10;99.90
47658;DHT22;33958;48.404;10.598;2022-07-23T05:55:11;19.30;99.90
47658;DHT22;33958;48.404;10.598;2022-07-23T05:57:40;19.40;99.90
47658;DHT22;33958;48.404;10.598;2022-07-23T06:00:08;19.30;99.90
47658;DHT22;33958;48.404;10.598;2022-07-23T06:02:37;19.10;99.90
47658;DHT22;33958;48.404;10.598;2022-07-23T06:05:05;19.10;99.90
47658;DHT22;33958;48.404;10.598;2022-07-23T06:07:35;19.00;99.90
47658;DHT22;33958;48.404;10.598;2022-07-23T06:10:03;18.90;99.90
47658;DHT22;33958;48.404;10.598;2022-07-23T06:12:31;19.00;99.90
47658;DHT22;33958;48.404;10.598;2022-07-23T06:14:57;19.00;99.90
47658;DHT22;33958;48.404;10.598;2022-07-23T06:17:25;18.90;99.90
47658;DHT22;33958;48.404;10.598;2022-07-23T06:19:52;19.00;99.90
47658;DHT22;33958;48.404;10.598;2022-07-23T06:22:20;18.80;99.90
47658;DHT22;33958;48.404;10.598;2022-07-23T06:24:47;18.90;99.90
47658;DHT22;33958;48.404;10.598;2022-07-23T06:27:14;18.90;99.90
47658;DHT22;33958;48.404;10.598;2022-07-23T06:29:41;19.00;99.90
47658;DHT22;33958;48.404;10.598;2022-07-23T06:32:08;18.80;99.90
47658;DHT22;33958;48.404;10.598;2022-07-23T06:34:35;19.20;99.90
47658;DHT22;33958;48.404;10.598;2022-07-23T06:37:02;19.00;99.90
47658;DHT22;33958;48.404;10.598;2022-07-23T06:39:29;19.00;99.90
47658;DHT22;33958;48.404;10.598;2022-07-23T06:41:56;19.20;99.90
47658;DHT22;33958;48.404;10.598;2022-07-23T06:44:27;19.30;99.90
47658;DHT22;33958;48.404;10.598;2022-07-23T06:46:54;19.20;99.90
47658;DHT22;33958;48.404;10.598;2022-07-23T06:49:20;19.40;99.90
47658;DHT22;33958;48.404;10.598;2022-07-23T06:51:47;19.40;99.90
47658;DHT22;33958;48.404;10.598;2022-07-23T06:54:14;19.20;99.90
47658;DHT22;33958;48.404;10.598;2022-07-23T06:56:41;19.20;99.90
47658;DHT22;33958;48.404;10.598;2022-07-23T06:59:10;19.20;99.90
47658;DHT22;33958;48.404;10.598;2022-07-23T07:01:37;19.10;99.90
47658;DHT22;33958;48.404;10.598;2022-07-23T07:04:04;19.00;99.90
47658;DHT22;33958;48.404;10.598;2022-07-23T07:06:31;19.20;99.90
47658;DHT22;33958;48.404;10.598;2022-07-23T07:08:58;19.20;99.90
47658;DHT22;33958;48.404;10.598;2022-07-23T07:11:26;19.20;99.90
47658;DHT22;33958;48.404;10.598;2022-07-23T07:13:53;19.10;99.90
47658;DHT22;33958;48.404;10.598;2022-07-23T07:16:19;19.40;99.90
47658;DHT22;33958;48.404;10.598;2022-07-23T07:18:47;19.50;99.90
47658;DHT22;33958;48.404;10.598;2022-07-23T07:21:13;19.40;99.90
47658;DHT22;33958;48.404;10.598;2022-07-23T07:23:40;19.20;99.90
47658;DHT22;33958;48.404;10.598;2022-07-23T07:26:07;18.90;99.90
47658;DHT22;33958;48.404;10.598;2022-07-23T07:28:34;18.90;99.90
47658;DHT22;33958;48.404;10.598;2022-07-23T07:31:01;19.30;99.90
47658;DHT22;33958;48.404;10.598;2022-07-23T07:33:29;19.50;99.90
47658;DHT22;33958;48.404;10.598;2022-07-23T07:35:56;19.20;99.90
47658;DHT22;33958;48.404;10.598;2022-07-23T07:38:23;19.10;99.90
47658;DHT22;33958;48.404;10.598;2022-07-23T07:40:50;18.60;99.90
47658;DHT22;33958;48.404;10.598;2022-07-23T07:43:18;18.80;99.90
47658;DHT22;33958;48.404;10.598;2022-07-23T07:45:45;18.80;99.90
47658;DHT22;33958;48.404;10.598;2022-07-23T07:48:12;18.80;99.90
47658;DHT22;33958;48.404;10.598;2022-07-23T07:50:39;18.90;99.90
47658;DHT22;33958;48.404;10.598;2022-07-23T07:53:06;18.70;99.90
47658;DHT22;33958;48.404;10.598;2022-07-23T07:55:35;18.70;99.90
47658;DHT22;33958;48.404;10.598;2022-07-23T07:58:03;19.30;99.90
47658;DHT22;33958;48.404;10.598;2022-07-23T08:00:31;19.10;99.90
47658;DHT22;33958;48.404;10.598;2022-07-23T08:02:59;19.10;99.90
47658;DHT22;33958;48.404;10.598;2022-07-23T08:05:30;19.40;99.90
47658;DHT22;33958;48.404;10.598;2022-07-23T08:07:58;19.60;99.90
47658;DHT22;33958;48.404;10.598;2022-07-23T08:10:27;19.60;99.90
47658;DHT22;33958;48.404;10.598;2022-07-23T08:12:55;19.90;99.90
47658;DHT22;33958;48.404;10.598;2022-07-23T08:15:27;20.10;99.90
47658;DHT22;33958;48.404;10.598;2022-07-23T08:17:55;20.20;99.90
47658;DHT22;33958;48.404;10.598;2022-07-23T08:20:23;20.70;99.90
47658;DHT22;33958;48.404;10.598;2022-07-23T08:22:53;20.70;99.90
47658;DHT22;33958;48.404;10.598;2022-07-23T08:25:43;20.90;99.90
47658;DHT22;33958;48.404;10.598;2022-07-23T08:28:10;21.60;99.90
47658;DHT22;33958;48.404;10.598;2022-07-23T08:30:39;22.40;99.90
47658;DHT22;33958;48.404;10.598;2022-07-23T08:33:17;22.40;99.90
47658;DHT22;33958;48.404;10.598;2022-07-23T08:35:57;22.70;99.90
47658;DHT22;33958;48.404;10.598;2022-07-23T08:38:25;22.70;99.90
47658;DHT22;33958;48.404;10.598;2022-07-23T08:40:54;22.90;99.90
47658;DHT22;33958;48.404;10.598;2022-07-23T08:43:22;22.80;99.90
47658;DHT22;33958;48.404;10.598;2022-07-23T08:45:52;23.10;99.90
47658;DHT22;33958;48.404;10.598;2022-07-23T08:48:22;23.10;99.90
47658;DHT22;33958;48.404;10.598;2022-07-23T08:51:01;23.40;99.90
47658;DHT22;33958;48.404;10.598;2022-07-23T08:53:29;23.50;99.90
47658;DHT22;33958;48.404;10.598;2022-07-23T08:55:57;23.70;99.90
47658;DHT22;33958;48.404;10.598;2022-07-23T08:58:25;23.90;99.90
47658;DHT22;33958;48.404;10.598;2022-07-23T09:00:54;23.80;99.90
47658;DHT22;33958;48.404;10.598;2022-07-23T09:03:28;23.90;99.90
47658;DHT22;33958;48.404;10.598;2022-07-23T09:05:56;24.30;99.90
47658;DHT22;33958;48.404;10.598;2022-07-23T09:08:35;23.90;99.90
47658;DHT22;33958;48.404;10.598;2022-07-23T09:11:04;24.20;99.90
47658;DHT22;33958;48.404;10.598;2022-07-23T09:16:05;25.20;99.90
47658;DHT22;33958;48.404;10.598;2022-07-23T09:18:45;25.10;99.90
47658;DHT22;33958;48.404;10.598;2022-07-23T09:21:13;25.20;99.90
47658;DHT22;33958;48.404;10.598;2022-07-23T09:23:52;25.10;99.90
47658;DHT22;33958;48.404;10.598;2022-07-23T09:31:56;25.30;99.90
47658;DHT22;33958;48.404;10.598;2022-07-23T09:34:32;25.90;99.90
47658;DHT22;33958;48.404;10.598;2022-07-23T09:37:16;26.00;99.90
47658;DHT22;33958;48.404;10.598;2022-07-23T09:39:44;26.20;98.70
47658;DHT22;33958;48.404;10.598;2022-07-23T09:42:19;25.30;99.60
47658;DHT22;33958;48.404;10.598;2022-07-23T09:44:52;25.70;99.90
47658;DHT22;33958;48.404;10.598;2022-07-23T09:47:20;26.10;99.40
47658;DHT22;33958;48.404;10.598;2022-07-23T09:50:08;26.70;98.70
47658;DHT22;33958;48.404;10.598;2022-07-23T09:52:45;26.60;98.50
47658;DHT22;33958;48.404;10.598;2022-07-23T09:55:16;26.80;97.60
47658;DHT22;33958;48.404;10.598;2022-07-23T09:57:43;26.40;97.40
47658;DHT22;33958;48.404;10.598;2022-07-23T10:00:17;26.30;98.50
47658;DHT22;33958;48.404;10.598;2022-07-23T10:02:46;26.50;97.80
47658;DHT22;33958;48.404;10.598;2022-07-23T10:05:15;26.80;97.40
47658;DHT22;33958;48.404;10.598;2022-07-23T10:07:42;26.50;97.70
47658;DHT22;33958;48.404;10.598;2022-07-23T10:10:17;26.20;98.20
47658;DHT22;33958;48.404;10.598;2022-07-23T10:12:44;26.60;97.70
47658;DHT22;33958;48.404;10.598;2022-07-23T10:15:18;26.00;98.80
47658;DHT22;33958;48.404;10.598;2022-07-23T10:17:45;25.50;99.00
47658;DHT22;33958;48.404;10.598;2022-07-23T10:20:13;25.70;98.70
47658;DHT22;33958;48.404;10.598;2022-07-23T10:26:03;26.40;95.10
47658;DHT22;33958;48.404;10.598;2022-07-23T10:28:39;26.30;96.40
47658;DHT22;33958;48.404;10.598;2022-07-23T10:34:39;26.60;94.80
47658;DHT22;33958;48.404;10.598;2022-07-23T10:37:21;27.00;93.80
47658;DHT22;33958;48.404;10.598;2022-07-23T10:40:18;27.10;93.40
47658;DHT22;33958;48.404;10.598;2022-07-23T10:42:48;27.80;92.90
47658;DHT22;33958;48.404;10.598;2022-07-23T10:45:35;27.10;92.40
47658;DHT22;33958;48.404;10.598;2022-07-23T10:48:17;26.80;92.40
47658;DHT22;33958;48.404;10.598;2022-07-23T10:59:15;28.20;89.50
47658;DHT22;33958;48.404;10.598;2022-07-23T11:01:42;28.70;88.90
47658;DHT22;33958;48.404;10.598;2022-07-23T11:04:09;27.70;88.40
47658;DHT22;33958;48.404;10.598;2022-07-23T11:15:08;28.20;89.30
47658;DHT22;33958;48.404;10.598;2022-07-23T11:20:20;28.60;86.70
47658;DHT22;33958;48.404;10.598;2022-07-23T11:22:50;29.10;87.00
47658;DHT22;33958;48.404;10.598;2022-07-23T11:28:17;29.30;84.30
47658;DHT22;33958;48.404;10.598;2022-07-23T11:30:47;29.30;84.90
47658;DHT22;33958;48.404;10.598;2022-07-23T11:33:19;29.20;87.00
47658;DHT22;33958;48.404;10.598;2022-07-23T11:35:49;28.30;86.30
47658;DHT22;33958;48.404;10.598;2022-07-23T11:38:19;28.30;86.00
47658;DHT22;33958;48.404;10.598;2022-07-23T11:40:48;29.40;86.30
47658;DHT22;33958;48.404;10.598;2022-07-23T11:43:16;29.20;83.50
47658;DHT22;33958;48.404;10.598;2022-07-23T11:45:48;28.60;84.50
47658;DHT22;33958;48.404;10.598;2022-07-23T11:48:22;29.10;85.20
47658;DHT22;33958;48.404;10.598;2022-07-23T11:50:50;30.20;81.70
47658;DHT22;33958;48.404;10.598;2022-07-23T11:53:28;29.90;81.10
47658;DHT22;33958;48.404;10.598;2022-07-23T11:56:07;30.40;78.30
47658;DHT22;33958;48.404;10.598;2022-07-23T11:58:34;30.80;79.20
47658;DHT22;33958;48.404;10.598;2022-07-23T12:01:03;30.60;78.80
47658;DHT22;33958;48.404;10.598;2022-07-23T12:03:30;29.70;79.40
47658;DHT22;33958;48.404;10.598;2022-07-23T12:05:58;29.60;82.50
47658;DHT22;33958;48.404;10.598;2022-07-23T12:08:26;29.60;81.30
47658;DHT22;33958;48.404;10.598;2022-07-23T12:10:52;29.90;79.40
47658;DHT22;33958;48.404;10.598;2022-07-23T12:13:22;30.40;79.90
47658;DHT22;33958;48.404;10.598;2022-07-23T12:15:53;30.30;78.40
47658;DHT22;33958;48.404;10.598;2022-07-23T12:18:25;30.70;79.90
47658;DHT22;33958;48.404;10.598;2022-07-23T12:20:54;31.00;78.80
47658;DHT22;33958;48.404;10.598;2022-07-23T12:23:24;31.40;76.70
47658;DHT22;33958;48.404;10.598;2022-07-23T12:25:53;30.30;76.00
47658;DHT22;33958;48.404;10.598;2022-07-23T12:28:28;29.50;78.70
47658;DHT22;33958;48.404;10.598;2022-07-23T12:30:58;29.40;81.00
47658;DHT22;33958;48.404;10.598;2022-07-23T12:33:29;29.30;81.80
47658;DHT22;33958;48.404;10.598;2022-07-23T12:36:01;29.40;81.40
47658;DHT22;33958;48.404;10.598;2022-07-23T12:38:47;29.10;83.50
47658;DHT22;33958;48.404;10.598;2022-07-23T12:41:15;29.20;81.10
47658;DHT22;33958;48.404;10.598;2022-07-23T12:43:44;28.50;84.60
47658;DHT22;33958;48.404;10.598;2022-07-23T12:46:17;28.00;85.20
47658;DHT22;33958;48.404;10.598;2022-07-23T12:51:22;27.50;87.20
47658;DHT22;33958;48.404;10.598;2022-07-23T12:53:55;27.30;88.70
47658;DHT22;33958;48.404;10.598;2022-07-23T12:56:28;27.00;90.10
47658;DHT22;33958;48.404;10.598;2022-07-23T13:01:35;26.90;90.20
47658;DHT22;33958;48.404;10.598;2022-07-23T13:04:10;26.40;91.00
47658;DHT22;33958;48.404;10.598;2022-07-23T13:06:53;26.40;91.10
47658;DHT22;33958;48.404;10.598;2022-07-23T13:09:29;26.30;91.70
47658;DHT22;33958;48.404;10.598;2022-07-23T13:12:16;26.30;91.70
47658;DHT22;33958;48.404;10.598;2022-07-23T13:14:43;26.30;92.10
47658;DHT22;33958;48.404;10.598;2022-07-23T13:17:10;26.00;92.50
47658;DHT22;33958;48.404;10.598;2022-07-23T13:19:38;25.70;92.90
47658;DHT22;33958;48.404;10.598;2022-07-23T13:22:05;25.80;93.80
47658;DHT22;33958;48.404;10.598;2022-07-23T13:24:36;25.70;93.90
47658;DHT22;33958;48.404;10.598;2022-07-23T13:27:05;25.30;99.90
47658;DHT22;33958;48.404;10.598;2022-07-23T13:29:37;22.10;99.90
47658;DHT22;33958;48.404;10.598;2022-07-23T13:32:04;20.90;99.90
47658;DHT22;33958;48.404;10.598;2022-07-23T13:34:39;21.10;99.90
47658;DHT22;33958;48.404;10.598;2022-07-23T13:37:06;21.20;99.90
47658;DHT22;33958;48.404;10.598;2022-07-23T13:39:33;21.70;99.90
47658;DHT22;33958;48.404;10.598;2022-07-23T13:42:04;22.50;99.90
47658;DHT22;33958;48.404;10.598;2022-07-23T13:44:34;23.20;99.90
47658;DHT22;33958;48.404;10.598;2022-07-23T13:47:02;23.70;99.90
47658;DHT22;33958;48.404;10.598;2022-07-23T13:49:30;24.40;99.90
47658;DHT22;33958;48.404;10.598;2022-07-23T13:51:57;24.40;99.90
47658;DHT22;33958;48.404;10.598;2022-07-23T13:54:24;25.30;99.90
47658;DHT22;33958;48.404;10.598;2022-07-23T13:56:54;25.60;99.90
47658;DHT22;33958;48.404;10.598;2022-07-23T13:59:21;26.40;99.90
47658;DHT22;33958;48.404;10.598;2022-07-23T14:01:52;27.20;99.90
47658;DHT22;33958;48.404;10.598;2022-07-23T14:04:39;27.30;99.90
47658;DHT22;33958;48.404;10.598;2022-07-23T14:07:08;26.80;99.90
47658;DHT22;33958;48.404;10.598;2022-07-23T14:09:35;27.30;99.90
47658;DHT22;33958;48.404;10.598;2022-07-23T14:12:03;27.20;99.90
47658;DHT22;33958;48.404;10.598;2022-07-23T14:14:30;27.50;99.40
47658;DHT22;33958;48.404;10.598;2022-07-23T14:16:57;27.80;99.50
47658;DHT22;33958;48.404;10.598;2022-07-23T14:19:27;27.60;99.70
47658;DHT22;33958;48.404;10.598;2022-07-23T14:21:56;27.50;97.60
47658;DHT22;33958;48.404;10.598;2022-07-23T14:24:23;27.70;99.40
47658;DHT22;33958;48.404;10.598;2022-07-23T14:26:55;28.10;99.10
47658;DHT22;33958;48.404;10.598;2022-07-23T14:29:22;28.90;98.30
47658;DHT22;33958;48.404;10.598;2022-07-23T14:31:49;28.70;95.70
47658;DHT22;33958;48.404;10.598;2022-07-23T14:34:16;28.40;95.80
47658;DHT22;33958;48.404;10.598;2022-07-23T14:36:53;27.70;94.80
47658;DHT22;33958;48.404;10.598;2022-07-23T14:39:20;27.10;95.70
47658;DHT22;33958;48.404;10.598;2022-07-23T14:41:47;27.20;97.00
47658;DHT22;33958;48.404;10.598;2022-07-23T14:44:14;26.90;96.30
47658;DHT22;33958;48.404;10.598;2022-07-23T14:46:41;26.50;96.00
47658;DHT22;33958;48.404;10.598;2022-07-23T14:49:08;26.30;95.90
47658;DHT22;33958;48.404;10.598;2022-07-23T14:51:36;26.30;96.80
47658;DHT22;33958;48.404;10.598;2022-07-23T14:54:04;26.30;96.40
47658;DHT22;33958;48.404;10.598;2022-07-23T14:56:32;26.30;97.00
47658;DHT22;33958;48.404;10.598;2022-07-23T14:59:00;26.10;97.90
47658;DHT22;33958;48.404;10.598;2022-07-23T15:01:27;26.10;99.00
47658;DHT22;33958;48.404;10.598;2022-07-23T15:03:54;26.20;98.40
47658;DHT22;33958;48.404;10.598;2022-07-23T15:06:25;26.10;98.80
47658;DHT22;33958;48.404;10.598;2022-07-23T15:08:52;25.80;97.60
47658;DHT22;33958;48.404;10.598;2022-07-23T15:11:19;25.70;99.60
47658;DHT22;33958;48.404;10.598;2022-07-23T15:13:46;25.70;99.50
47658;DHT22;33958;48.404;10.598;2022-07-23T15:16:14;25.60;99.90
47658;DHT22;33958;48.404;10.598;2022-07-23T15:18:41;25.50;99.90
47658;DHT22;33958;48.404;10.598;2022-07-23T15:21:08;25.50;99.90
47658;DHT22;33958;48.404;10.598;2022-07-23T15:23:36;25.60;99.90
47658;DHT22;33958;48.404;10.598;2022-07-23T15:26:07;26.20;99.90
47658;DHT22;33958;48.404;10.598;2022-07-23T15:28:35;26.50;99.90
47658;DHT22;33958;48.404;10.598;2022-07-23T15:31:03;26.90;99.90
47658;DHT22;33958;48.404;10.598;2022-07-23T15:33:34;28.60;99.30
47658;DHT22;33958;48.404;10.598;2022-07-23T15:36:03;31.30;94.90
47658;DHT22;33958;48.404;10.598;2022-07-23T15:38:31;32.70;93.90
47658;DHT22;33958;48.404;10.598;2022-07-23T15:40:59;31.60;86.00
47658;DHT22;33958;48.404;10.598;2022-07-23T15:43:26;31.10;86.20
47658;DHT22;33958;48.404;10.598;2022-07-23T15:45:53;32.30;82.90
47658;DHT22;33958;48.404;10.598;2022-07-23T15:48:21;31.40;83.30
47658;DHT22;33958;48.404;10.598;2022-07-23T15:50:48;31.90;79.90
47658;DHT22;33958;48.404;10.598;2022-07-23T15:53:15;32.70;78.20
47658;DHT22;33958;48.404;10.598;2022-07-23T15:55:43;32.70;75.80
47658;DHT22;33958;48.404;10.598;2022-07-23T15:58:13;33.40;76.20
47658;DHT22;33958;48.404;10.598;2022-07-23T16:00:40;34.20;72.60
47658;DHT22;33958;48.404;10.598;2022-07-23T16:03:12;33.70;72.60
47658;DHT22;33958;48.404;10.598;2022-07-23T16:05:41;33.00;75.40
47658;DHT22;33958;48.404;10.598;2022-07-23T16:08:07;32.60;75.00